Terminal Aerodrome Forecast
Issued by NWS

Home | Current Version | Previous Version | Text Only | Print | Product List | Glossary On
Versions: 1 2 3 4 5 6 7 8 9 10 11 12 13 14 15 16 17 18 19 20 21 22 23 24 25 26 27 28 29 30 31 32 33 34 35 36 37 38 39 40 41 42 43 44 45 46 47 48 49 50
000
FTUS45 KBOU 262329
TAFBJC
TAF
KBJC 262329Z 2700/2724 17014KT P6SM VCSH FEW070 BKN120 BKN200
     FM270130 22008KT P6SM FEW130 BKN200
     FM270900 VRB06KT P6SM FEW020 SCT140 BKN200
     FM271200 36007KT P6SM SCT010 BKN020
     FM271700 01010KT P6SM SCT020 BKN030
     FM271900 03010KT P6SM BKN050
      TEMPO 2720/2724 VRB20G35KT -TSRA BKN040CB=

USA.gov is the U.S. government's official web portal to all federal, state and local government web resources and services.